Time;durP1;ratioP1;P1;durP2;ratioP2;P2;SDS_P1;SDS_P2;PMS_P1;PMS_P2;Temp;Humidity;BMP_temperature;BMP_pressure;BME280_temperature;BME280_humidity;BME280_pressure;Samples;Min_cycle;Max_cycle;Signal;HPM_P1;HPM_P2
2022/08/31 00:05:42;;;;;;;1.17;0.40;;;18.00;65.60;;;;;;4734453;30;20469;-78
2022/08/31 00:08:09;;;;;;;1.83;0.50;;;18.00;65.70;;;;;;4719103;30;20048;-78
2022/08/31 00:10:39;;;;;;;0.85;0.40;;;18.00;65.70;;;;;;4733221;30;20071;-78
2022/08/31 00:13:09;;;;;;;0.82;0.38;;;17.90;65.80;;;;;;4704730;30;20060;-78
2022/08/31 00:15:36;;;;;;;1.60;0.50;;;17.90;65.90;;;;;;4722477;30;20536;-77
2022/08/31 00:18:03;;;;;;;0.77;0.40;;;17.90;66.00;;;;;;4694591;30;20060;-78
2022/08/31 00:20:33;;;;;;;1.10;0.38;;;17.90;66.10;;;;;;4693860;30;20060;-77
2022/08/31 00:23:06;;;;;;;1.60;0.50;;;17.90;66.10;;;;;;4747200;30;20051;-78
2022/08/31 00:25:34;;;;;;;1.30;0.50;;;17.90;66.30;;;;;;4704490;30;20056;-78
2022/08/31 00:28:02;;;;;;;0.90;0.40;;;17.80;66.30;;;;;;4704398;30;20041;-77
2022/08/31 00:30:30;;;;;;;1.88;0.65;;;17.80;66.50;;;;;;4718565;30;20064;-78
2022/08/31 00:32:58;;;;;;;1.48;0.45;;;17.70;66.50;;;;;;4733909;30;20515;-78
2022/08/31 00:35:27;;;;;;;2.10;0.50;;;17.70;66.60;;;;;;4718749;30;20129;-77
2022/08/31 00:37:54;;;;;;;1.10;0.30;;;17.70;66.60;;;;;;4732759;30;20144;-78
2022/08/31 00:40:22;;;;;;;1.60;0.65;;;17.70;66.60;;;;;;4734264;30;20051;-78
2022/08/31 00:42:49;;;;;;;1.35;0.47;;;17.70;66.80;;;;;;4718176;30;20507;-77
2022/08/31 00:45:17;;;;;;;2.15;0.57;;;17.70;66.90;;;;;;4718187;30;20467;-77
2022/08/31 00:47:47;;;;;;;1.38;0.40;;;17.60;66.80;;;;;;4722979;30;20052;-79
2022/08/31 00:50:18;;;;;;;1.05;0.50;;;17.60;66.90;;;;;;4724410;30;20049;-78
2022/08/31 00:52:49;;;;;;;0.95;0.40;;;17.60;66.90;;;;;;4717246;30;20056;-79
2022/08/31 00:55:43;;;;;;;0.87;0.40;;;17.60;67.10;;;;;;4728949;30;20135;-78
2022/08/31 00:58:12;;;;;;;0.80;0.35;;;17.60;67.10;;;;;;4723573;30;20056;-78
2022/08/31 01:00:41;;;;;;;1.77;0.50;;;17.50;67.20;;;;;;4709470;30;20541;-79
2022/08/31 01:03:10;;;;;;;1.73;0.40;;;17.50;67.20;;;;;;4739854;30;20050;-79
2022/08/31 01:05:38;;;;;;;1.65;0.80;;;17.50;67.20;;;;;;4717742;30;20064;-78
2022/08/31 01:08:06;;;;;;;1.63;0.50;;;17.40;67.30;;;;;;4717833;30;20059;-79
2022/08/31 01:10:37;;;;;;;0.75;0.40;;;17.40;67.40;;;;;;4718147;30;20056;-77
2022/08/31 01:13:04;;;;;;;0.90;0.40;;;17.40;67.40;;;;;;4733856;30;20059;-78
2022/08/31 01:15:33;;;;;;;0.90;0.38;;;17.30;67.40;;;;;;4717310;30;20087;-77
2022/08/31 01:18:03;;;;;;;1.58;0.60;;;17.30;67.50;;;;;;4717875;30;20049;-78
2022/08/31 01:20:59;;;;;;;2.35;0.75;;;17.30;67.50;;;;;;4719868;30;20067;-78
2022/08/31 01:23:32;;;;;;;1.00;0.32;;;17.30;67.60;;;;;;4728839;30;20055;-78
2022/08/31 01:26:00;;;;;;;1.17;0.40;;;17.30;67.70;;;;;;4722092;30;20059;-78
2022/08/31 01:28:32;;;;;;;1.38;0.60;;;17.20;67.70;;;;;;4714051;30;20510;-77
2022/08/31 01:31:19;;;;;;;1.15;0.40;;;17.20;67.80;;;;;;4701007;30;20091;-78
2022/08/31 01:33:46;;;;;;;1.00;0.40;;;17.20;67.80;;;;;;4723298;30;20049;-78
2022/08/31 01:36:15;;;;;;;1.55;0.60;;;17.10;67.80;;;;;;4704884;30;20048;-77
2022/08/31 01:38:42;;;;;;;2.25;0.40;;;17.10;67.90;;;;;;4720760;30;20060;-78
2022/08/31 01:41:10;;;;;;;0.90;0.38;;;17.10;68.00;;;;;;4708370;30;20424;-78
2022/08/31 01:43:40;;;;;;;1.13;0.52;;;17.00;68.00;;;;;;4718426;30;20051;-77
2022/08/31 01:46:11;;;;;;;1.52;0.50;;;17.00;68.10;;;;;;4709744;30;20056;-78
2022/08/31 01:48:41;;;;;;;1.35;0.57;;;17.00;68.20;;;;;;4720045;30;20126;-78
2022/08/31 01:51:10;;;;;;;0.77;0.45;;;17.00;68.30;;;;;;4724752;30;20069;-77
2022/08/31 01:53:42;;;;;;;1.15;0.40;;;16.90;68.60;;;;;;4717290;30;20467;-78
2022/08/31 01:56:18;;;;;;;0.65;0.38;;;16.90;68.30;;;;;;4709550;30;20155;-78
2022/08/31 01:58:45;;;;;;;1.08;0.50;;;16.90;68.30;;;;;;4716744;30;20147;-78
2022/08/31 02:01:30;;;;;;;2.05;0.40;;;16.90;68.40;;;;;;4721485;30;20143;-78
2022/08/31 02:04:03;;;;;;;1.15;0.40;;;16.90;68.50;;;;;;4718021;30;20410;-78
2022/08/31 02:06:31;;;;;;;1.25;0.45;;;16.80;68.50;;;;;;4717684;30;20548;-77
2022/08/31 02:08:59;;;;;;;1.67;0.40;;;16.80;68.60;;;;;;4717434;30;20102;-77
2022/08/31 02:11:26;;;;;;;1.75;0.60;;;16.80;68.60;;;;;;4724778;30;20148;-78
2022/08/31 02:13:53;;;;;;;1.83;0.40;;;16.80;68.70;;;;;;4690908;30;20133;-77
2022/08/31 02:16:21;;;;;;;2.05;0.40;;;16.70;68.70;;;;;;4702866;30;20062;-77
2022/08/31 02:18:48;;;;;;;1.98;0.50;;;16.70;68.70;;;;;;4740110;30;20048;-78
2022/08/31 02:21:16;;;;;;;1.35;0.43;;;16.70;68.70;;;;;;4717263;30;20062;-77
2022/08/31 02:23:44;;;;;;;1.40;0.40;;;16.60;68.70;;;;;;4721370;30;20052;-77
2022/08/31 02:26:11;;;;;;;1.73;0.40;;;16.60;68.80;;;;;;4703056;30;20499;-78
2022/08/31 02:28:38;;;;;;;1.67;0.40;;;16.60;68.70;;;;;;4705764;30;20052;-78
2022/08/31 02:31:07;;;;;;;0.93;0.50;;;16.60;68.70;;;;;;4720164;30;20061;-78
2022/08/31 02:33:43;;;;;;;0.80;0.30;;;16.60;68.60;;;;;;4720465;30;20052;-78
2022/08/31 02:36:11;;;;;;;1.15;0.40;;;16.50;68.60;;;;;;4706047;30;20063;-78
2022/08/31 02:38:39;;;;;;;0.95;0.45;;;16.50;68.70;;;;;;4720775;30;20063;-78
2022/08/31 02:41:06;;;;;;;1.20;0.40;;;16.50;68.80;;;;;;4720399;30;20561;-78
2022/08/31 02:43:36;;;;;;;1.30;0.43;;;16.50;68.80;;;;;;4705334;30;20087;-77
2022/08/31 02:46:03;;;;;;;1.05;0.40;;;16.40;68.70;;;;;;4701612;30;20061;-78
2022/08/31 02:48:36;;;;;;;0.85;0.35;;;16.40;68.80;;;;;;4729192;30;20550;-78
2022/08/31 02:51:07;;;;;;;0.85;0.30;;;16.40;68.80;;;;;;4689226;30;20514;-78
2022/08/31 02:53:35;;;;;;;0.82;0.30;;;16.40;68.80;;;;;;4746054;30;20080;-78
2022/08/31 02:56:03;;;;;;;0.60;0.30;;;16.30;68.70;;;;;;4720223;30;20057;-78
2022/08/31 02:58:35;;;;;;;1.65;0.32;;;16.30;68.70;;;;;;4707874;30;20059;-78
2022/08/31 03:01:02;;;;;;;1.23;0.40;;;16.30;68.70;;;;;;4720280;30;20044;-78
2022/08/31 03:03:33;;;;;;;1.38;0.70;;;16.30;68.70;;;;;;4723068;30;20114;-78
2022/08/31 03:06:01;;;;;;;0.85;0.30;;;16.30;68.60;;;;;;4702642;30;20041;-78
2022/08/31 03:08:38;;;;;;;0.88;0.22;;;16.20;68.60;;;;;;4699656;30;20060;-77
2022/08/31 03:11:08;;;;;;;0.77;0.30;;;16.20;68.60;;;;;;4705797;30;20053;-77
2022/08/31 03:13:39;;;;;;;0.75;0.40;;;16.20;68.60;;;;;;4706247;30;20190;-78
2022/08/31 03:16:07;;;;;;;1.00;0.50;;;16.20;68.60;;;;;;4702322;30;20116;-78
2022/08/31 03:18:35;;;;;;;0.70;0.30;;;16.10;68.60;;;;;;4713796;30;20056;-78
2022/08/31 03:21:02;;;;;;;0.88;0.30;;;16.10;68.60;;;;;;4702492;30;20056;-78
2022/08/31 03:23:29;;;;;;;2.53;0.38;;;16.10;68.60;;;;;;4698051;30;20067;-78
2022/08/31 03:25:57;;;;;;;0.85;0.35;;;16.10;68.60;;;;;;4706620;30;20053;-78
2022/08/31 03:28:25;;;;;;;1.33;0.40;;;16.10;68.60;;;;;;4713131;30;20052;-78
2022/08/31 03:31:14;;;;;;;0.65;0.30;;;16.00;68.50;;;;;;4701690;30;20060;-78
2022/08/31 03:33:41;;;;;;;0.75;0.20;;;16.00;68.50;;;;;;4705192;30;20492;-78
2022/08/31 03:36:08;;;;;;;0.65;0.40;;;16.00;68.50;;;;;;4705236;30;20062;-78
2022/08/31 03:38:36;;;;;;;1.20;0.47;;;15.90;68.50;;;;;;4701455;30;20155;-78
2022/08/31 03:41:03;;;;;;;0.65;0.30;;;15.90;68.40;;;;;;4716071;30;20060;-77
2022/08/31 03:43:31;;;;;;;1.02;0.28;;;15.90;68.40;;;;;;4716502;30;20502;-78
2022/08/31 03:45:58;;;;;;;1.08;0.30;;;15.90;68.40;;;;;;4702291;30;20140;-78
2022/08/31 03:48:37;;;;;;;0.75;0.40;;;15.90;68.40;;;;;;4693534;30;20053;-78
2022/08/31 03:51:09;;;;;;;1.75;0.40;;;15.80;68.90;;;;;;4688037;30;20419;-78
2022/08/31 03:53:36;;;;;;;1.23;0.40;;;15.80;68.20;;;;;;4730732;30;20160;-78
2022/08/31 03:56:08;;;;;;;0.50;0.20;;;15.80;68.20;;;;;;4687842;30;20129;-78
2022/08/31 03:58:40;;;;;;;0.70;0.30;;;15.80;68.20;;;;;;4723390;30;20519;-78
2022/08/31 04:01:11;;;;;;;0.40;0.20;;;15.80;68.20;;;;;;4716259;30;20096;-77
2022/08/31 04:04:06;;;;;;;0.60;0.20;;;15.80;68.20;;;;;;4709843;30;20076;-77
2022/08/31 04:06:48;;;;;;;1.25;0.40;;;15.70;68.10;;;;;;4713082;30;20393;-78
2022/08/31 04:09:33;;;;;;;0.80;0.40;;;15.70;68.00;;;;;;4696679;30;20111;-78
2022/08/31 04:12:19;;;;;;;0.80;0.20;;;15.70;67.90;;;;;;4715920;30;20052;-77
2022/08/31 04:15:10;;;;;;;0.50;0.20;;;15.70;68.40;;;;;;4695584;30;20515;-77
2022/08/31 04:18:03;;;;;;;1.33;0.30;;;15.70;67.80;;;;;;4717014;30;20085;-79
2022/08/31 04:20:43;;;;;;;0.80;0.30;;;15.70;67.80;;;;;;4705127;30;20055;-78
2022/08/31 04:23:11;;;;;;;0.65;0.22;;;15.60;67.70;;;;;;4701825;30;20151;-79
2022/08/31 04:25:51;;;;;;;1.10;0.30;;;15.60;67.70;;;;;;4703251;30;20041;-79
2022/08/31 04:28:18;;;;;;;0.55;0.35;;;15.60;67.60;;;;;;4716588;30;20431;-79
2022/08/31 04:30:47;;;;;;;0.60;0.28;;;15.60;67.60;;;;;;4674898;30;20132;-79
2022/08/31 04:33:15;;;;;;;1.15;0.40;;;15.60;67.50;;;;;;4687733;30;20092;-78
2022/08/31 04:35:43;;;;;;;1.13;0.40;;;15.60;67.40;;;;;;4701395;30;20053;-79
2022/08/31 04:38:10;;;;;;;0.80;0.20;;;15.60;67.40;;;;;;4701020;30;20515;-79
2022/08/31 04:40:41;;;;;;;1.80;0.30;;;15.50;67.30;;;;;;4726493;30;20049;-79
2022/08/31 04:43:08;;;;;;;1.20;0.30;;;15.50;67.20;;;;;;4715553;30;20107;-79
2022/08/31 04:45:41;;;;;;;1.50;0.35;;;15.60;67.30;;;;;;4702199;30;20049;-79
2022/08/31 04:48:10;;;;;;;1.45;0.30;;;15.60;67.20;;;;;;4713017;30;20474;-79
2022/08/31 04:50:37;;;;;;;1.45;0.30;;;15.50;67.10;;;;;;4700833;30;20511;-79
2022/08/31 04:53:09;;;;;;;0.60;0.20;;;15.50;67.10;;;;;;4701439;30;20063;-80
2022/08/31 04:55:41;;;;;;;0.55;0.15;;;15.50;67.00;;;;;;4701321;30;20058;-80
2022/08/31 04:58:12;;;;;;;0.35;0.13;;;15.50;66.80;;;;;;4730647;30;20623;-80
2022/08/31 05:00:42;;;;;;;0.70;0.20;;;15.50;67.40;;;;;;4703729;30;20041;-79
2022/08/31 05:03:21;;;;;;;1.05;0.30;;;15.50;67.30;;;;;;4715370;30;20053;-80
2022/08/31 05:05:52;;;;;;;0.82;0.20;;;15.40;66.50;;;;;;4720881;30;20045;-80
2022/08/31 05:08:19;;;;;;;0.82;0.30;;;15.40;67.00;;;;;;4709687;30;20053;-80
2022/08/31 05:10:47;;;;;;;0.63;0.28;;;15.40;66.30;;;;;;4710021;30;20073;-80
2022/08/31 05:13:14;;;;;;;0.45;0.20;;;15.40;66.30;;;;;;4707917;30;20409;-79
2022/08/31 05:15:42;;;;;;;1.55;0.17;;;15.40;66.20;;;;;;4701406;30;20081;-79
2022/08/31 05:18:13;;;;;;;1.90;0.20;;;15.40;66.10;;;;;;4717312;30;20096;-79
2022/08/31 05:20:48;;;;;;;0.30;0.20;;;15.40;66.00;;;;;;4701487;30;20045;-80
2022/08/31 05:23:16;;;;;;;0.57;0.10;;;15.40;66.00;;;;;;4715049;30;20121;-79
2022/08/31 05:25:44;;;;;;;0.35;0.10;;;15.40;65.90;;;;;;4699109;30;20084;-80
2022/08/31 05:28:12;;;;;;;0.30;0.10;;;15.40;65.80;;;;;;4689626;30;20053;-79
2022/08/31 05:30:43;;;;;;;1.08;0.20;;;15.40;65.70;;;;;;4700611;30;20056;-78
2022/08/31 05:33:22;;;;;;;0.20;0.05;;;15.40;65.60;;;;;;4689042;30;20057;-78
2022/08/31 05:35:49;;;;;;;0.77;0.10;;;15.30;65.60;;;;;;4714979;30;20099;-78
2022/08/31 05:38:16;;;;;;;1.38;0.10;;;15.40;65.60;;;;;;4711055;30;20065;-78
2022/08/31 05:40:51;;;;;;;0.30;0.10;;;15.40;65.50;;;;;;4700720;30;20047;-78
2022/08/31 05:43:19;;;;;;;0.50;0.10;;;15.40;65.30;;;;;;4697909;30;20102;-78
2022/08/31 05:45:46;;;;;;;0.57;0.20;;;15.40;65.20;;;;;;4724441;30;20064;-78
2022/08/31 05:48:14;;;;;;;0.85;0.20;;;15.40;65.10;;;;;;4724248;30;20057;-78
2022/08/31 05:50:41;;;;;;;1.35;0.17;;;15.50;65.00;;;;;;4713885;30;20388;-77
2022/08/31 05:53:08;;;;;;;0.47;0.10;;;15.50;64.90;;;;;;4712999;30;20053;-78
2022/08/31 05:55:36;;;;;;;0.73;0.10;;;15.40;64.70;;;;;;4684417;30;20084;-78
2022/08/31 05:58:04;;;;;;;0.63;0.13;;;15.40;64.60;;;;;;4700916;30;20049;-78
2022/08/31 06:00:32;;;;;;;0.40;0.20;;;15.40;64.50;;;;;;4715390;30;20101;-78
2022/08/31 06:03:19;;;;;;;0.30;0.10;;;15.50;64.50;;;;;;4718259;30;20157;-78
2022/08/31 06:05:49;;;;;;;0.20;0.10;;;15.50;64.30;;;;;;4690427;30;20077;-80
2022/08/31 06:08:17;;;;;;;0.50;0.17;;;15.50;64.20;;;;;;4707903;30;20136;-80
2022/08/31 06:10:56;;;;;;;0.60;0.10;;;15.50;64.10;;;;;;4717928;30;20056;-80
2022/08/31 06:13:25;;;;;;;1.52;0.30;;;15.50;64.10;;;;;;4735820;30;20053;-80
2022/08/31 06:15:52;;;;;;;1.08;0.30;;;15.50;64.10;;;;;;4717655;30;20057;-80
2022/08/31 06:18:19;;;;;;;0.40;0.10;;;15.50;64.00;;;;;;4703611;30;20063;-80
2022/08/31 06:21:00;;;;;;;0.63;0.10;;;15.50;64.00;;;;;;4703214;30;20083;-80
2022/08/31 06:23:42;;;;;;;1.02;0.20;;;15.50;64.00;;;;;;4717685;30;20057;-80
2022/08/31 06:26:14;;;;;;;1.90;0.20;;;15.50;64.70;;;;;;4703337;30;20472;-84
2022/08/31 06:28:54;;;;;;;;;;;15.50;64.00;;;;;;4723697;30;20057;-82
2022/08/31 06:31:45;;;;;;;1.15;0.20;;;15.40;64.10;;;;;;4712977;30;20334;-83
2022/08/31 06:34:23;;;;;;;1.55;0.20;;;15.40;64.10;;;;;;4717638;30;20053;-80
2022/08/31 06:37:10;;;;;;;3.25;0.30;;;15.40;64.10;;;;;;4711206;30;20068;-81
2022/08/31 06:40:06;;;;;;;0.40;0.20;;;15.40;64.00;;;;;;4736218;30;20072;-93
2022/08/31 06:43:07;;;;;;;1.80;0.20;;;15.40;64.10;;;;;;4716191;30;20060;-84
2022/08/31 06:45:56;;;;;;;1.33;0.30;;;15.50;64.10;;;;;;4685843;30;20466;-84
2022/08/31 06:48:30;;;;;;;0.68;0.20;;;15.50;64.00;;;;;;4735968;30;20049;-83
2022/08/31 06:50:58;;;;;;;0.60;0.10;;;15.50;64.00;;;;;;4696143;30;20123;-85
2022/08/31 06:53:26;;;;;;;1.02;0.17;;;15.50;63.90;;;;;;4733788;30;20045;-83
2022/08/31 06:56:17;;;;;;;0.50;0.20;;;15.60;63.90;;;;;;4725190;30;20419;-84
2022/08/31 06:59:19;;;;;;;0.63;0.20;;;15.70;63.80;;;;;;4688443;30;20064;-80
2022/08/31 07:02:04;;;;;;;0.90;0.17;;;15.80;63.60;;;;;;4719906;30;20490;-82
2022/08/31 07:04:36;;;;;;;0.30;0.10;;;15.90;63.40;;;;;;4706542;30;20056;-81
2022/08/31 07:07:05;;;;;;;0.35;0.10;;;16.00;63.30;;;;;;4722212;30;20056;-83
2022/08/31 07:09:33;;;;;;;0.75;0.20;;;16.00;63.30;;;;;;4720106;30;20227;-83
2022/08/31 07:12:20;;;;;;;0.63;0.20;;;16.00;63.40;;;;;;4705283;30;20584;-82
2022/08/31 07:14:54;;;;;;;0.70;0.10;;;16.00;63.50;;;;;;4707439;30;20064;-82
2022/08/31 07:17:23;;;;;;;0.73;0.10;;;16.10;63.50;;;;;;4705076;30;20060;-83
2022/08/31 07:20:06;;;;;;;1.75;0.20;;;16.20;63.40;;;;;;4689721;30;20069;-81
2022/08/31 07:22:34;;;;;;;1.55;0.20;;;16.30;63.40;;;;;;4716140;30;20045;-82
2022/08/31 07:25:22;;;;;;;0.38;0.10;;;16.50;63.30;;;;;;4701355;30;20056;-83
2022/08/31 07:27:52;;;;;;;1.90;0.50;;;16.50;63.20;;;;;;4719198;30;20136;-82
2022/08/31 07:30:22;;;;;;;0.88;0.20;;;16.60;63.30;;;;;;4695456;30;20049;-83
2022/08/31 07:32:50;;;;;;;1.42;0.20;;;16.70;63.10;;;;;;4705538;30;20561;-83
2022/08/31 07:35:23;;;;;;;0.73;0.20;;;16.80;63.00;;;;;;4739565;30;20056;-84
2022/08/31 07:43:43;;;;;;;0.47;0.20;;;17.20;62.60;;;;;;4738957;30;20059;-83
2022/08/31 07:46:15;;;;;;;0.63;0.20;;;17.40;62.50;;;;;;4725288;30;20060;-83
2022/08/31 07:48:43;;;;;;;0.70;0.30;;;17.50;62.40;;;;;;4735806;30;20044;-82
2022/08/31 07:51:29;;;;;;;2.08;0.20;;;17.60;63.00;;;;;;4723876;30;20100;-83
2022/08/31 07:54:28;;;;;;;1.38;0.30;;;17.70;62.30;;;;;;4720806;30;20116;-83
2022/08/31 07:57:04;;;;;;;1.55;0.20;;;17.70;62.30;;;;;;4721794;30;20143;-80
2022/08/31 07:59:33;;;;;;;1.08;0.30;;;17.70;62.40;;;;;;4735922;30;20068;-84
2022/08/31 08:02:03;;;;;;;0.90;0.20;;;17.80;62.40;;;;;;4720988;30;20176;-83
2022/08/31 08:04:35;;;;;;;1.17;0.25;;;17.90;62.20;;;;;;4722257;30;20052;-83
2022/08/31 08:07:24;;;;;;;0.60;0.20;;;18.00;62.10;;;;;;4726304;30;20063;-83
2022/08/31 08:10:13;;;;;;;0.70;0.20;;;18.20;62.00;;;;;;4710242;30;20136;-83
2022/08/31 08:13:08;;;;;;;1.00;0.30;;;18.40;62.00;;;;;;4723409;30;20063;-82
2022/08/31 08:15:50;;;;;;;2.25;0.40;;;18.40;61.70;;;;;;4708173;30;20036;-83
2022/08/31 08:18:28;;;;;;;0.60;0.22;;;18.50;61.60;;;;;;4706082;30;20048;-82
2022/08/31 08:20:59;;;;;;;1.85;0.30;;;18.50;61.50;;;;;;4705055;30;20143;-83
2022/08/31 08:23:29;;;;;;;1.00;0.30;;;18.60;61.60;;;;;;4705027;30;20048;-84
2022/08/31 08:26:23;;;;;;;0.93;0.22;;;18.60;61.50;;;;;;4697455;30;20059;-83
2022/08/31 08:29:23;;;;;;;1.45;0.20;;;18.70;61.50;;;;;;4717033;30;20052;-80
2022/08/31 08:31:53;;;;;;;1.38;0.35;;;18.80;61.40;;;;;;4718773;30;20068;-81
2022/08/31 08:34:24;;;;;;;1.63;0.30;;;18.90;61.80;;;;;;4691073;30;20049;-81
2022/08/31 08:36:59;;;;;;;2.17;0.45;;;19.00;61.10;;;;;;4709862;30;20121;-81
2022/08/31 08:39:26;;;;;;;0.73;0.20;;;19.00;61.00;;;;;;4708068;30;20076;-81
2022/08/31 08:42:02;;;;;;;0.63;0.28;;;19.00;61.00;;;;;;4725682;30;20449;-80
2022/08/31 08:44:31;;;;;;;0.68;0.30;;;19.00;61.00;;;;;;4708959;30;20135;-80
2022/08/31 08:47:13;;;;;;;1.10;0.28;;;19.10;61.00;;;;;;4718239;30;20052;-78
2022/08/31 08:49:50;;;;;;;1.13;0.50;;;19.10;61.00;;;;;;4733849;30;20380;-78
2022/08/31 08:52:30;;;;;;;1.40;0.40;;;19.10;61.10;;;;;;4718570;30;20151;-78
2022/08/31 08:55:05;;;;;;;3.83;0.50;;;19.20;61.00;;;;;;4717818;30;20052;-78
2022/08/31 08:57:40;;;;;;;0.63;0.20;;;19.20;60.90;;;;;;4732938;30;20080;-79
2022/08/31 09:00:14;;;;;;;;;;;19.30;60.80;;;;;;4704062;30;20399;-78
2022/08/31 09:02:59;;;;;;;1.50;0.20;;;19.40;60.80;;;;;;4723425;30;20399;-78
2022/08/31 09:06:08;;;;;;;1.25;0.30;;;19.40;60.70;;;;;;4734934;30;20063;-79
2022/08/31 09:08:41;;;;;;;0.50;0.10;;;19.60;60.50;;;;;;4714532;30;20056;-78
2022/08/31 09:11:45;;;;;;;0.60;0.20;;;19.80;60.30;;;;;;4727853;30;20065;-78
2022/08/31 09:14:27;;;;;;;0.73;0.20;;;20.10;59.80;;;;;;4714221;30;20080;-78
2022/08/31 09:17:38;;;;;;;0.65;0.20;;;20.40;59.60;;;;;;4711980;30;20060;-78
2022/08/31 09:20:06;;;;;;;2.47;0.50;;;20.50;59.40;;;;;;4726036;30;20060;-79
2022/08/31 09:22:49;;;;;;;2.10;0.32;;;20.50;59.30;;;;;;4718095;30;20048;-79
2022/08/31 09:25:31;;;;;;;1.00;0.20;;;20.60;59.20;;;;;;4718099;30;20118;-82
2022/08/31 09:28:45;;;;;;;1.05;0.32;;;20.50;59.80;;;;;;4711837;30;20049;-78
2022/08/31 09:31:39;;;;;;;0.60;0.20;;;20.60;59.30;;;;;;4718448;30;20052;-79
2022/08/31 09:34:28;;;;;;;2.05;0.25;;;20.60;59.10;;;;;;4724111;30;20059;-82
2022/08/31 09:37:27;;;;;;;1.23;0.35;;;20.60;59.10;;;;;;4727153;30;20058;-80
2022/08/31 09:39:55;;;;;;;0.75;0.20;;;20.70;58.80;;;;;;4707259;30;20140;-79
2022/08/31 09:42:29;;;;;;;0.63;0.20;;;20.80;58.80;;;;;;4692794;30;20061;-81
2022/08/31 09:45:11;;;;;;;0.73;0.20;;;20.90;58.60;;;;;;4737323;30;20036;-83
2022/08/31 09:47:51;;;;;;;3.15;0.20;;;21.10;58.50;;;;;;4721472;30;20044;-78
2022/08/31 09:50:45;;;;;;;0.60;0.25;;;21.20;58.30;;;;;;4736090;30;20045;-80
2022/08/31 09:56:15;;;;;;;1.75;0.30;;;21.20;57.60;;;;;;4736698;30;20837;-79
2022/08/31 09:58:46;;;;;;;0.50;0.20;;;21.30;57.50;;;;;;4718855;30;20052;-79
2022/08/31 10:01:43;;;;;;;0.85;0.30;;;21.40;57.40;;;;;;4712375;30;20083;-80
2022/08/31 10:04:35;;;;;;;0.20;0.20;;;21.50;57.10;;;;;;4720976;30;20064;-83
2022/08/31 10:07:08;;;;;;;2.15;0.20;;;21.60;56.80;;;;;;4735281;30;20060;-82
2022/08/31 10:09:43;;;;;;;0.40;0.10;;;21.70;56.60;;;;;;4721310;30;20048;-82
2022/08/31 10:12:57;;;;;;;0.85;0.20;;;21.80;57.20;;;;;;4736527;30;20403;-80
2022/08/31 10:15:32;;;;;;;0.35;0.10;;;22.00;56.30;;;;;;4724750;30;20455;-80
2022/08/31 10:18:18;;;;;;;0.40;0.20;;;22.20;56.00;;;;;;4744182;30;20048;-80
2022/08/31 10:21:06;;;;;;;0.60;0.22;;;22.40;55.50;;;;;;4720882;30;20063;-80
2022/08/31 10:23:53;;;;;;;0.40;0.20;;;22.40;55.10;;;;;;4720879;30;20053;-80
2022/08/31 10:26:35;;;;;;;0.70;0.20;;;22.50;55.20;;;;;;4731915;30;20044;-80
2022/08/31 10:29:12;;;;;;;0.38;0.20;;;22.50;54.90;;;;;;4719924;30;20507;-77
2022/08/31 10:31:52;;;;;;;0.73;0.20;;;22.60;54.80;;;;;;4724801;30;20114;-77
2022/08/31 10:37:43;;;;;;;1.20;0.22;;;23.00;54.20;;;;;;4720165;30;20096;-77
2022/08/31 10:40:28;;;;;;;1.60;0.40;;;23.10;53.80;;;;;;4709908;30;20068;-80
2022/08/31 10:43:09;;;;;;;0.40;0.20;;;22.90;54.00;;;;;;4734706;30;20167;-80
2022/08/31 10:45:41;;;;;;;1.08;0.22;;;22.60;54.60;;;;;;4738034;30;20052;-80
2022/08/31 10:48:11;;;;;;;0.25;0.10;;;22.50;55.00;;;;;;4721827;30;20044;-80
2022/08/31 10:51:19;;;;;;;0.75;0.10;;;22.30;55.20;;;;;;4707507;30;20517;-79
2022/08/31 10:53:58;;;;;;;0.73;0.20;;;22.40;55.20;;;;;;4724848;30;20055;-78
2022/08/31 10:56:55;;;;;;;0.77;0.30;;;22.60;55.00;;;;;;4723055;30;20073;-82
2022/08/31 11:02:47;;;;;;;0.93;0.30;;;23.20;53.90;;;;;;4738343;30;20045;-76
2022/08/31 11:05:37;;;;;;;0.60;0.30;;;23.20;53.80;;;;;;4719750;30;20048;-77
2022/08/31 11:08:33;;;;;;;1.45;0.30;;;23.20;53.80;;;;;;4735786;30;20041;-75
2022/08/31 11:11:04;;;;;;;1.95;0.20;;;23.20;53.90;;;;;;4734117;30;20053;-78
2022/08/31 11:13:52;;;;;;;0.75;0.30;;;23.10;54.10;;;;;;4735511;30;20056;-76
2022/08/31 11:16:45;;;;;;;0.50;0.20;;;23.20;54.00;;;;;;4740987;30;20062;-75
2022/08/31 11:19:38;;;;;;;2.05;0.35;;;23.20;53.70;;;;;;4740410;30;20062;-76
2022/08/31 11:22:43;;;;;;;0.68;0.30;;;23.30;53.80;;;;;;4742300;30;20394;-76
2022/08/31 11:25:36;;;;;;;1.13;0.30;;;23.50;53.50;;;;;;4730784;30;20151;-76
2022/08/31 11:28:22;;;;;;;0.65;0.20;;;23.60;53.20;;;;;;4735631;30;20052;-75
2022/08/31 11:30:50;;;;;;;1.75;0.30;;;23.80;53.10;;;;;;4730998;30;20045;-75
2022/08/31 11:33:24;;;;;;;0.80;0.30;;;24.00;52.80;;;;;;4741194;30;20502;-75
2022/08/31 11:36:04;;;;;;;0.50;0.30;;;24.20;52.40;;;;;;4729694;30;20052;-76
2022/08/31 11:39:00;;;;;;;0.40;0.20;;;24.30;52.30;;;;;;4721125;30;20084;-76
2022/08/31 11:41:45;;;;;;;1.20;0.30;;;25.50;51.20;;;;;;4732067;30;20052;-76
2022/08/31 11:44:35;;;;;;;0.82;0.30;;;26.60;49.60;;;;;;4739398;30;20040;-77
2022/08/31 11:47:25;;;;;;;1.27;0.50;;;26.80;48.20;;;;;;4717229;30;20063;-76
2022/08/31 11:50:02;;;;;;;0.65;0.22;;;26.30;48.50;;;;;;4722323;30;20134;-76
2022/08/31 11:52:41;;;;;;;0.40;0.10;;;25.60;49.40;;;;;;4738881;30;20453;-76
2022/08/31 11:55:35;;;;;;;1.23;0.30;;;25.20;50.10;;;;;;4734086;30;20106;-76
2022/08/31 11:58:14;;;;;;;1.42;0.35;;;24.70;50.70;;;;;;4729250;30;20481;-76
2022/08/31 12:00:58;;;;;;;0.70;0.20;;;24.40;51.20;;;;;;4741314;30;20463;-76
2022/08/31 12:04:02;;;;;;;0.60;0.30;;;24.10;51.50;;;;;;4719062;30;20470;-79
2022/08/31 12:06:32;;;;;;;0.57;0.30;;;24.00;51.70;;;;;;4724601;30;20044;-78
2022/08/31 12:09:10;;;;;;;1.85;0.20;;;23.80;51.80;;;;;;4738620;30;20102;-80
2022/08/31 12:11:55;;;;;;;1.70;0.30;;;23.90;51.50;;;;;;4707913;30;20060;-78
2022/08/31 12:14:37;;;;;;;1.15;0.30;;;23.80;51.50;;;;;;4732706;30;20076;-79
2022/08/31 12:17:08;;;;;;;1.02;0.25;;;23.90;51.40;;;;;;4725255;30;20060;-80
2022/08/31 12:20:00;;;;;;;0.50;0.20;;;23.90;51.40;;;;;;4734537;30;20052;-79
2022/08/31 12:25:53;;;;;;;0.70;0.20;;;24.00;51.30;;;;;;4720734;30;20337;-79
2022/08/31 12:28:49;;;;;;;0.50;0.20;;;23.90;51.40;;;;;;4729391;30;20123;-80
2022/08/31 12:31:17;;;;;;;1.65;0.30;;;23.90;51.40;;;;;;4704396;30;20053;-80
2022/08/31 12:33:55;;;;;;;1.98;0.30;;;23.80;51.40;;;;;;4739491;30;20867;-80
2022/08/31 12:36:29;;;;;;;0.43;0.28;;;23.90;51.20;;;;;;4737615;30;20055;-81
2022/08/31 12:39:18;;;;;;;0.57;0.20;;;23.80;51.00;;;;;;4738298;30;20118;-81
2022/08/31 12:42:03;;;;;;;2.28;0.50;;;23.80;51.00;;;;;;4743250;30;21217;-81
2022/08/31 12:44:40;;;;;;;0.55;0.30;;;23.80;51.00;;;;;;4720451;30;20076;-79
2022/08/31 12:47:30;;;;;;;2.25;0.40;;;23.80;51.10;;;;;;4733675;30;20195;-77
2022/08/31 12:50:19;;;;;;;0.77;0.30;;;23.80;51.00;;;;;;4735408;30;20085;-78
2022/08/31 12:53:14;;;;;;;1.65;0.30;;;23.80;51.10;;;;;;4738698;30;20052;-77
2022/08/31 12:55:53;;;;;;;0.77;0.20;;;23.70;51.00;;;;;;4734566;30;20059;-76
2022/08/31 12:58:35;;;;;;;0.75;0.28;;;23.70;51.10;;;;;;4733806;30;20121;-75
2022/08/31 13:01:06;;;;;;;0.35;0.20;;;23.70;51.10;;;;;;4736006;30;20048;-76
2022/08/31 13:03:38;;;;;;;0.40;0.25;;;23.70;51.10;;;;;;4737394;30;20075;-76
2022/08/31 13:06:12;;;;;;;0.60;0.20;;;23.80;51.00;;;;;;4733452;30;20048;-75
2022/08/31 13:08:43;;;;;;;0.50;0.20;;;23.80;50.90;;;;;;4717917;30;20063;-75
2022/08/31 13:11:30;;;;;;;0.63;0.30;;;23.80;50.80;;;;;;4732845;30;20730;-75
2022/08/31 13:14:28;;;;;;;1.05;0.20;;;23.70;50.70;;;;;;4729317;30;20379;-76
2022/08/31 13:17:10;;;;;;;1.13;0.30;;;23.70;50.70;;;;;;4735775;30;20135;-75
2022/08/31 13:19:42;;;;;;;0.30;0.20;;;23.80;50.60;;;;;;4733422;30;20113;-76
2022/08/31 13:22:15;;;;;;;1.05;0.20;;;23.90;50.60;;;;;;4733384;30;20079;-75
2022/08/31 13:24:45;;;;;;;0.40;0.20;;;23.90;50.50;;;;;;4717291;30;20060;-75
2022/08/31 13:27:24;;;;;;;0.30;0.10;;;23.90;50.60;;;;;;4731826;30;20509;-74
2022/08/31 13:29:54;;;;;;;0.88;0.20;;;24.00;50.50;;;;;;4732009;30;20052;-75
2022/08/31 13:32:32;;;;;;;1.10;0.20;;;24.00;50.50;;;;;;4734399;30;20055;-77
2022/08/31 13:35:03;;;;;;;0.40;0.20;;;24.00;50.50;;;;;;4734634;30;20052;-74
2022/08/31 13:37:34;;;;;;;0.68;0.20;;;24.00;50.40;;;;;;4731744;30;20068;-75
2022/08/31 13:40:16;;;;;;;0.32;0.20;;;24.10;50.50;;;;;;4733392;30;20122;-75
2022/08/31 13:42:50;;;;;;;0.88;0.30;;;24.10;50.40;;;;;;4736402;30;20036;-75
2022/08/31 13:45:56;;;;;;;0.50;0.20;;;24.20;50.20;;;;;;4731508;30;20068;-76
2022/08/31 13:48:36;;;;;;;1.05;0.30;;;24.40;49.80;;;;;;4729706;30;20044;-75
2022/08/31 13:51:13;;;;;;;0.85;0.30;;;24.40;50.00;;;;;;4731170;30;20661;-76
2022/08/31 13:53:43;;;;;;;1.67;0.30;;;24.40;49.80;;;;;;4735247;30;20430;-75
2022/08/31 13:59:22;;;;;;;0.88;0.28;;;24.30;49.80;;;;;;4732383;30;20065;-75
2022/08/31 14:02:06;;;;;;;1.45;0.30;;;24.30;49.80;;;;;;4732886;30;20143;-75